SKLT/LET METAR and TAF weather

Enter ICAO airport designator
Station Type Date Time Source
SKLT METAR 2019/06/16 20:00 UTC NOAA

SKLT 162000Z 22004KT 9999 SCT016 BKN080 28/25 A2989 RMK VCSH/N


Station Type Date Time Source
SKLT Decoded METAR 2019/06/16 20:00 UTC NOAA

Leticia / Vasquez Cobo, Colombia (SKLT) 04-10S 069-57W 84M
Jun 16, 2019 - 04:00 PM EDT / 2019.06.16 2000 UTC
Wind: from the SW (220 degrees) at 5 MPH (4 KT):0
Visibility: greater than 7 mile(s):0
Sky conditions: mostly cloudy
Temperature: 82 F (28 C)
Dew Point: 77 F (25 C)
Relative Humidity: 83%
Pressure (altimeter): 29.89 in. Hg (1012 hPa)
ob: SKLT 162000Z 22004KT 9999 SCT016 BKN080 28/25 A2989 RMK VCSH/N
cycle: 20

Station Type Date Time Source
SKLT TAF 2019/06/16 18:39 UTC NOAA

TAF SKLT 161630Z 1618/1718 VRB03KT 9999 SCT015 BKN080
TEMPO 1619/1620 DZRA SCT010CB BKN050 TX32/1618Z TN22/1711Z

Example: see airport list